»·PEaware :: N143VT KPSP-KSJC

N143VT :: KPSP-KSJC

FLIGHT INFORMATION

Flight Status: Arrived
Operator: Privately registered:
United States
More flights under this callsign
Pilot: Anonymous 16492 (16492)
Aircraft: BOMBARDIER BD-100 CHALLENGER 300
(CL30)
More flights by this aircraft type
Origin: KPSP Palm Springs Intl
United States
Destination: KSJC Mineta San Jose Intl
United States
More flights between these airports :: More routes between these airports
Route: +CATH1 PSP V137 AVE V248 PRB TROXX SILCN4
File this flight plan on PilotEdge
Remarks:
Altitude:
(Current/Filed)
33,000ft
Speed:
(Current/Filed)
440kts
Departed: 14-Sep-18 04:43 PM
Arrived: 14-Sep-18 05:44 PM
Distance/Time
Traveled:
339nm/1:00
Distance/Time
To Go:
Arrived

Flight Plot

Page will automatically refresh every two minutes.

Flight plan parsing failed; only flown route is shown


Map Options




Map Legend


Flown Route
Filed Route
Departure Airport
Arrival Airport
Navaid (VOR, NDB)
Fix

Horizontal Profiles

Position Reports

Time Latitude Longitude Heading Altitude Ground
Speed
14-Sep-18 16:22 33.825352 -116.509542 90 484ft 0kts
14-Sep-18 16:23 33.825352 -116.509542 90 484ft 0kts
14-Sep-18 16:24 33.825352 -116.509542 90 484ft 0kts
14-Sep-18 16:25 33.825352 -116.509542 90 484ft 0kts
14-Sep-18 16:26 33.825352 -116.509542 90 484ft 0kts
14-Sep-18 16:27 33.825352 -116.509542 90 484ft 0kts
14-Sep-18 16:28 33.825352 -116.509542 90 484ft 0kts
14-Sep-18 16:29 33.825352 -116.509542 90 484ft 0kts
14-Sep-18 16:30 33.825352 -116.509542 90 484ft 0kts
14-Sep-18 16:31 33.825352 -116.509542 90 484ft 0kts
14-Sep-18 16:32 33.825352 -116.509542 90 484ft 0kts
14-Sep-18 16:33 33.825352 -116.509542 90 484ft 0kts
14-Sep-18 16:34 33.825352 -116.509542 90 484ft 0kts
14-Sep-18 16:35 33.825352 -116.509537 90 484ft 1kts
14-Sep-18 16:36 33.825364 -116.509331 85 484ft 0kts
14-Sep-18 16:37 33.825364 -116.509331 85 484ft 0kts
14-Sep-18 16:38 33.825364 -116.509331 85 484ft 0kts
14-Sep-18 16:39 33.825369 -116.508479 91 484ft 15kts
14-Sep-18 16:40 33.823753 -116.504398 141 483ft 21kts
14-Sep-18 16:41 33.818531 -116.499001 88 483ft 2kts
14-Sep-18 16:42 33.818532 -116.498949 88 483ft 0kts
14-Sep-18 16:43 33.818532 -116.498949 88 483ft 0kts
14-Sep-18 16:44 33.819362 -116.498491 321 483ft 0kts
14-Sep-18 16:45 33.841886 -116.519198 322 1698ft 180kts
14-Sep-18 16:46 33.880943 -116.557119 322 5888ft 193kts
14-Sep-18 16:47 33.911033 -116.534820 115 9418ft 193kts
14-Sep-18 16:48 33.887523 -116.475169 117 12747ft 207kts
14-Sep-18 16:49 33.870338 -116.410169 62 15762ft 227kts
14-Sep-18 16:50 33.916846 -116.424497 291 18348ft 225kts
14-Sep-18 16:51 33.942298 -116.485206 291 20553ft 234kts
14-Sep-18 16:52 33.977056 -116.573216 291 20754ft 347kts
14-Sep-18 16:53 34.019658 -116.683697 291 23275ft 370kts
14-Sep-18 16:54 34.064474 -116.797505 291 25778ft 383kts
14-Sep-18 16:55 34.110945 -116.913490 291 27977ft 393kts
14-Sep-18 16:56 34.161615 -117.031808 296 29888ft 408kts
14-Sep-18 16:57 34.222889 -117.149011 296 31586ft 417kts
14-Sep-18 16:58 34.285382 -117.268687 296 32875ft 433kts
14-Sep-18 16:59 34.352189 -117.396960 296 32916ft 462kts
14-Sep-18 17:00 34.420872 -117.529207 296 32941ft 468kts
14-Sep-18 17:01 34.489436 -117.661746 296 32937ft 470kts
14-Sep-18 17:02 34.558756 -117.796262 296 32931ft 472kts
14-Sep-18 17:03 34.621801 -117.919046 296 32921ft 473kts
14-Sep-18 17:04 34.688933 -118.050262 296 32924ft 473kts
14-Sep-18 17:05 34.757844 -118.185464 296 32925ft 472kts
14-Sep-18 17:06 34.826783 -118.321249 296 32920ft 471kts
14-Sep-18 17:07 34.894912 -118.455942 296 32978ft 470kts
14-Sep-18 17:08 34.961979 -118.589034 295 33037ft 468kts
14-Sep-18 17:09 35.026622 -118.717810 294 33044ft 469kts
14-Sep-18 17:10 35.091849 -118.848229 294 32997ft 471kts
14-Sep-18 17:11 35.159621 -118.984228 293 32908ft 471kts
14-Sep-18 17:12 35.226597 -119.119214 293 32884ft 467kts
14-Sep-18 17:13 35.293214 -119.254000 293 32884ft 464kts
14-Sep-18 17:14 35.359392 -119.388402 293 32884ft 462kts
14-Sep-18 17:15 35.424962 -119.522082 293 32881ft 460kts
14-Sep-18 17:16 35.490109 -119.655416 292 32878ft 459kts
14-Sep-18 17:17 35.555339 -119.789439 292 32884ft 459kts
14-Sep-18 17:18 35.619937 -119.922911 291 32886ft 457kts
14-Sep-18 17:19 35.647336 -120.067684 268 32891ft 432kts
14-Sep-18 17:20 35.655929 -120.214594 266 32890ft 431kts
14-Sep-18 17:21 35.662250 -120.360668 266 32889ft 430kts
14-Sep-18 17:22 35.667977 -120.507221 266 32888ft 430kts
14-Sep-18 17:23 35.705133 -120.647664 298 32885ft 464kts
14-Sep-18 17:24 35.800686 -120.753917 313 32617ft 476kts
14-Sep-18 17:25 35.901172 -120.854301 313 31398ft 463kts
14-Sep-18 17:26 35.999947 -120.953044 313 30009ft 455kts
14-Sep-18 17:27 36.099341 -121.047807 315 28596ft 449kts
14-Sep-18 17:28 36.191134 -121.135289 314 27283ft 440kts
14-Sep-18 17:29 36.286797 -121.226719 314 25908ft 431kts
14-Sep-18 17:30 36.380397 -121.316550 315 24543ft 422kts
14-Sep-18 17:31 36.470393 -121.403349 315 21892ft 405kts
14-Sep-18 17:32 36.570661 -121.459365 336 18540ft 394kts
14-Sep-18 17:33 36.670202 -121.502712 337 15120ft 371kts
14-Sep-18 17:34 36.763778 -121.542674 338 11926ft 335kts
14-Sep-18 17:35 36.844918 -121.577180 338 9642ft 301kts
14-Sep-18 17:36 36.921482 -121.609865 339 7960ft 293kts
14-Sep-18 17:37 36.996782 -121.641870 340 5315ft 282kts
14-Sep-18 17:38 37.066738 -121.671586 340 4165ft 255kts
14-Sep-18 17:39 37.127644 -121.697503 341 3963ft 252kts
14-Sep-18 17:40 37.187419 -121.741425 322 3897ft 212kts
14-Sep-18 17:41 37.228739 -121.785016 323 2753ft 188kts
14-Sep-18 17:42 37.263834 -121.822457 317 2595ft 144kts
14-Sep-18 17:43 37.294876 -121.856658 319 2112ft 152kts
14-Sep-18 17:44 37.323234 -121.887265 320 857ft 127kts
14-Sep-18 17:45 37.348027 -121.913936 320 284ft 115kts
14-Sep-18 17:46 37.361781 -121.931329 229 68ft 19kts
14-Sep-18 17:47 37.361169 -121.934298 153 68ft 3kts
14-Sep-18 17:53 37.361125 -121.934259 138 69ft 0kts
14-Sep-18 17:54 37.361125 -121.934259 138 69ft 0kts
14-Sep-18 17:55 37.361125 -121.934259 138 69ft 0kts
14-Sep-18 17:56 37.361125 -121.934259 138 69ft 0kts
14-Sep-18 17:57 37.361125 -121.934259 138 68ft 0kts

Navigation Log

Ident Type
Flight plan parsing failed, navigation log unavailable